Time;durP1;ratioP1;P1;durP2;ratioP2;P2;SDS_P1;SDS_P2;PMS_P1;PMS_P2;Temp;Humidity;BMP_temperature;BMP_pressure;BME280_temperature;BME280_humidity;BME280_pressure;Samples;Min_cycle;Max_cycle;Signal;HPM_P1;HPM_P2
2023/11/11 07:00:18;;;;;;;23.60;9.30;;;;;;;7.57;68.37;97637.38;86114;1276;95145;31
2023/11/11 07:02:47;;;;;;;21.80;9.20;;;;;;;7.61;68.58;97633.55;106846;1273;108564;-74
2023/11/11 07:05:20;;;;;;;20.90;9.90;;;;;;;7.62;68.62;97633.78;107106;1274;94340;-77
2023/11/11 07:07:49;;;;;;;26.50;12.40;;;;;;;7.67;68.71;97624.60;107136;1275;107719;-75
2023/11/11 07:10:25;;;;;;;27.00;12.50;;;;;;;7.72;68.59;97616.95;107075;1276;94796;-74
2023/11/11 07:12:53;;;;;;;32.80;15.80;;;;;;;7.78;68.59;97618.92;106999;1275;94652;-76
2023/11/11 07:15:48;;;;;;;;;;;;;;;;;;;;;
2023/11/11 07:18:16;;;;;;;36.40;18.10;;;;;;;7.82;68.75;97624.92;107104;1275;95211;-74
2023/11/11 07:20:54;;;;;;;30.80;16.50;;;;;;;7.86;68.76;97624.59;107088;1273;107730;-75
2023/11/11 07:23:35;;;;;;;36.40;18.50;;;;;;;7.90;68.73;97627.39;107034;1273;94557;-76
2023/11/11 07:26:20;;;;;;;45.70;22.40;;;;;;;7.89;68.78;97626.59;107138;1276;94511;-76
2023/11/11 07:28:49;;;;;;;34.40;16.10;;;;;;;7.89;68.83;97622.52;107090;1276;109567;-79
2023/11/11 07:31:22;;;;;;;33.30;15.90;;;;;;;7.92;68.71;97622.67;107052;1274;95717;-82
2023/11/11 07:33:58;;;;;;;29.10;14.50;;;;;;;8.01;68.95;97615.02;106833;1277;108047;-76
2023/11/11 07:36:30;;;;;;;28.00;13.70;;;;;;;8.10;68.91;97608.41;106902;1274;95711;-79
2023/11/11 07:39:06;;;;;;;24.50;12.70;;;;;;;8.22;69.04;97602.64;107029;1273;94321;-76
2023/11/11 07:42:03;;;;;;;28.60;14.20;;;;;;;8.39;69.09;97593.80;103001;1288;636675;-76
2023/11/11 07:44:34;;;;;;;23.90;11.40;;;;;;;8.45;68.90;97584.27;104607;1273;94312;-77
2023/11/11 07:47:07;;;;;;;22.80;10.20;;;;;;;8.47;68.96;97585.30;104914;1264;94435;-77
2023/11/11 07:49:40;;;;;;;40.30;19.90;;;;;;;8.50;69.06;97587.17;105002;1266;107142;-78
2023/11/11 07:52:20;;;;;;;32.50;15.30;;;;;;;8.52;69.03;97584.70;104967;1260;95522;-77
2023/11/11 07:54:53;;;;;;;28.30;12.90;;;;;;;8.50;69.10;97581.39;100528;1259;6250148;-75
2023/11/11 07:57:37;;;;;;;29.90;14.00;;;;;;;8.44;69.15;97587.52;105639;1256;94653;-76
2023/11/11 08:00:18;;;;;;;20.80;9.30;;;;;;;8.38;69.16;97587.83;105400;1254;106788;-77
2023/11/11 08:02:49;;;;;;;20.70;8.70;;;;;;;8.35;69.12;97590.77;105662;1263;95185;-79
2023/11/11 08:05:28;;;;;;;21.20;8.20;;;;;;;8.32;69.14;97596.48;105485;1257;107788;-80
2023/11/11 08:07:59;;;;;;;17.70;7.70;;;;;;;8.32;69.18;97597.36;105848;1262;95222;-77
2023/11/11 08:10:44;;;;;;;19.30;8.20;;;;;;;8.30;69.16;97594.16;105629;1254;95107;-76
2023/11/11 08:13:16;;;;;;;18.50;8.80;;;;;;;8.28;69.14;97591.92;105717;1256;108663;-77
2023/11/11 08:15:44;;;;;;;27.60;12.40;;;;;;;8.24;69.18;97591.73;105430;1256;95539;-76
2023/11/11 08:18:13;;;;;;;37.10;17.20;;;;;;;8.20;69.29;97590.61;105343;1266;107258;-79
2023/11/11 08:20:42;;;;;;;30.50;13.60;;;;;;;8.18;69.39;97587.21;105241;1256;95683;-75
2023/11/11 08:23:10;;;;;;;31.20;14.10;;;;;;;8.15;69.32;97584.56;105865;1257;95262;-79
2023/11/11 08:25:46;;;;;;;38.40;16.90;;;;;;;8.13;69.43;97583.81;106237;1257;108149;-79
2023/11/11 08:28:14;;;;;;;33.80;15.20;;;;;;;8.16;69.55;97582.67;105422;1267;95226;-77
2023/11/11 08:30:44;;;;;;;34.70;18.20;;;;;;;8.18;69.38;97584.44;105312;1258;107917;-77
2023/11/11 08:33:14;;;;;;;42.60;21.20;;;;;;;8.19;69.39;97581.70;105179;1260;95231;-77
2023/11/11 08:35:51;;;;;;;41.00;18.80;;;;;;;8.23;69.48;97584.23;105216;1257;95221;-76
2023/11/11 08:38:20;;;;;;;34.70;15.80;;;;;;;8.27;69.51;97585.48;105534;1256;108560;-79
2023/11/11 08:40:48;;;;;;;35.10;16.90;;;;;;;8.29;69.58;97590.34;105320;1260;95530;-75
2023/11/11 08:43:21;;;;;;;37.60;20.00;;;;;;;8.35;69.61;97592.17;105458;1267;109153;-76
2023/11/11 08:45:49;;;;;;;29.70;15.80;;;;;;;8.44;69.82;97592.81;105587;1257;95303;-75
2023/11/11 08:48:17;;;;;;;24.40;13.20;;;;;;;8.47;69.73;97592.02;105456;1260;95897;-75
2023/11/11 08:51:36;;;;;;;23.40;11.90;;;;;;;8.50;69.80;97592.80;105733;1254;106802;-76
2023/11/11 08:53:45;;;;;;;23.20;11.70;;;;;;;8.56;69.82;97594.25;105252;1267;96270;-76
2023/11/11 08:56:22;;;;;;;19.40;8.60;;;;;;;8.64;69.70;97587.55;105250;1258;107747;-77
2023/11/11 08:58:56;;;;;;;21.10;9.30;;;;;;;8.74;69.88;97581.23;105552;1256;96123;-76
2023/11/11 09:01:25;;;;;;;21.40;9.60;;;;;;;8.83;69.81;97576.00;105443;1264;95234;-80
2023/11/11 09:04:02;;;;;;;19.40;9.00;;;;;;;8.89;69.79;97574.23;105486;1258;109066;-76
2023/11/11 09:06:35;;;;;;;17.20;7.40;;;;;;;8.96;69.82;97572.19;105703;1264;95132;-76
2023/11/11 09:09:04;;;;;;;15.40;7.30;;;;;;;9.02;69.84;97568.12;105323;1265;108774;-76
2023/11/11 09:12:06;;;;;;;14.30;6.30;;;;;;;9.09;69.76;97560.61;105571;1256;95693;-77
2023/11/11 09:14:46;;;;;;;13.10;6.30;;;;;;;9.08;69.70;97564.69;105343;1258;95788;-75
2023/11/11 09:17:14;;;;;;;13.80;6.20;;;;;;;9.06;69.74;97568.23;105294;1254;108468;-76
2023/11/11 09:19:46;;;;;;;15.70;6.90;;;;;;;9.05;69.62;97564.83;105403;1256;95925;-80
2023/11/11 09:22:14;;;;;;;29.30;14.10;;;;;;;9.04;69.67;97568.14;105311;1254;107586;-83
2023/11/11 09:24:45;;;;;;;27.30;12.60;;;;;;;9.08;69.73;97561.73;105338;1254;96200;-79
2023/11/11 09:27:13;;;;;;;24.00;10.40;;;;;;;9.12;69.73;97557.38;105148;1261;96156;-79
2023/11/11 09:29:43;;;;;;;22.10;9.70;;;;;;;9.15;69.66;97553.86;105443;1251;108572;-79
2023/11/11 09:32:15;;;;;;;19.10;8.50;;;;;;;9.26;69.96;97554.96;105298;1268;95516;-79
2023/11/11 09:34:45;;;;;;;18.50;8.70;;;;;;;9.33;69.91;97555.41;105439;1260;107648;-79
2023/11/11 09:37:21;;;;;;;17.30;7.90;;;;;;;9.38;69.84;97556.94;108839;1251;93124;-79
2023/11/11 09:40:11;;;;;;;18.70;7.60;;;;;;;9.42;69.87;97554.61;108861;1251;92911;-75
2023/11/11 09:42:57;;;;;;;18.20;8.50;;;;;;;9.48;69.78;97547.50;108872;1250;108454;-78
2023/11/11 09:45:26;;;;;;;18.70;8.90;;;;;;;9.54;69.83;97549.44;108865;1251;95505;-78
2023/11/11 09:48:03;;;;;;;18.30;8.50;;;;;;;9.55;69.77;97547.39;108838;1251;108738;-88
2023/11/11 09:50:32;;;;;;;21.70;10.10;;;;;;;9.68;69.96;97543.02;108701;1254;93017;-75
2023/11/11 09:53:02;;;;;;;25.50;13.10;;;;;;;9.76;69.77;97544.05;108829;1251;93004;-75
2023/11/11 09:55:33;;;;;;;21.40;11.20;;;;;;;9.70;69.63;97542.16;108906;1251;108643;-75
2023/11/11 09:58:05;;;;;;;22.40;11.00;;;;;;;9.73;69.87;97536.05;108859;1251;95455;-74
2023/11/11 10:00:33;;;;;;;22.40;11.90;;;;;;;9.83;70.04;97537.23;108794;1251;107703;-74
2023/11/11 10:03:03;;;;;;;22.50;13.40;;;;;;;9.92;70.08;97537.57;108807;1251;92999;-77
2023/11/11 10:05:35;;;;;;;29.90;17.70;;;;;;;9.94;69.87;97539.32;108702;1251;92972;-76
2023/11/11 10:08:06;;;;;;;28.50;17.20;;;;;;;9.92;69.70;97534.17;108649;1251;108740;-74
2023/11/11 10:10:39;;;;;;;27.10;15.80;;;;;;;9.91;69.84;97529.58;108798;1251;95952;-74
2023/11/11 10:13:08;;;;;;;25.60;16.50;;;;;;;9.89;69.77;97528.79;108811;1251;107222;-74
2023/11/11 10:15:36;;;;;;;24.90;13.40;;;;;;;9.85;69.77;97526.52;108897;1251;92898;-75
2023/11/11 10:18:05;;;;;;;22.90;13.90;;;;;;;9.82;69.79;97526.33;108820;1251;92869;-74
2023/11/11 10:20:34;;;;;;;27.60;16.60;;;;;;;9.83;69.90;97527.44;108809;1251;108817;-73
2023/11/11 10:23:04;;;;;;;29.40;18.70;;;;;;;9.83;69.80;97524.27;108790;1251;94979;-74
2023/11/11 10:25:34;;;;;;;25.20;15.30;;;;;;;9.81;69.73;97520.32;108820;1251;107644;-74
2023/11/11 10:28:02;;;;;;;30.20;18.30;;;;;;;9.82;69.74;97520.85;108878;1251;92938;-74
2023/11/11 10:30:33;;;;;;;31.30;18.50;;;;;;;9.85;69.91;97524.59;108878;1253;92903;-75
2023/11/11 10:33:04;;;;;;;30.30;16.70;;;;;;;9.90;69.91;97524.16;108785;1251;108622;-75
2023/11/11 10:35:36;;;;;;;29.50;17.50;;;;;;;9.92;69.83;97526.27;108821;1251;93842;-75
2023/11/11 10:38:07;;;;;;;30.40;17.90;;;;;;;9.94;69.88;97527.30;108764;1251;105568;-75
2023/11/11 10:40:35;;;;;;;33.80;19.40;;;;;;;9.94;69.72;97526.74;108656;1251;92943;-75
2023/11/11 10:43:05;;;;;;;32.90;20.10;;;;;;;9.91;69.77;97523.40;108846;1251;92983;-74
2023/11/11 10:45:36;;;;;;;36.80;22.20;;;;;;;9.92;69.83;97521.99;108790;1251;108691;-74
2023/11/11 10:48:05;;;;;;;32.50;18.50;;;;;;;9.93;69.83;97519.48;108826;1251;95491;-75
2023/11/11 10:50:38;;;;;;;33.10;20.20;;;;;;;9.93;69.80;97520.08;108791;1251;107616;-76
2023/11/11 10:53:09;;;;;;;35.50;22.90;;;;;;;9.87;69.77;97521.59;108732;1252;93101;-74
2023/11/11 10:55:44;;;;;;;32.30;19.20;;;;;;;9.84;69.86;97518.31;108838;1251;92903;-74
2023/11/11 10:58:20;;;;;;;33.10;22.30;;;;;;;9.83;69.97;97514.90;108804;1251;108659;-73
2023/11/11 11:03:56;;;;;;;30.60;20.00;;;;;;;9.94;70.11;97506.72;102281;1293;651362;-78
2023/11/11 11:06:42;;;;;;;31.40;20.70;;;;;;;9.97;70.01;97510.32;105466;1261;94296;-77
2023/11/11 11:09:24;;;;;;;36.00;21.20;;;;;;;9.96;70.07;97509.37;105379;1259;94296;-75
2023/11/11 11:12:21;;;;;;;27.30;16.10;;;;;;;9.94;70.01;97512.13;105378;1257;106413;-77
2023/11/11 11:14:55;;;;;;;33.60;20.30;;;;;;;9.86;70.09;97513.53;105272;1254;95508;-76
2023/11/11 11:17:34;;;;;;;32.00;19.30;;;;;;;9.81;70.09;97511.88;105265;1258;180514;-76
2023/11/11 11:20:08;;;;;;;27.40;16.20;;;;;;;9.75;70.23;97513.31;105714;1257;94367;-79
2023/11/11 11:22:42;;;;;;;26.00;15.10;;;;;;;9.69;70.25;97513.34;105401;1257;95147;-77
2023/11/11 11:25:34;;;;;;;26.60;13.70;;;;;;;9.67;70.04;97507.88;105652;1256;106325;-76
2023/11/11 11:28:10;;;;;;;25.60;12.80;;;;;;;9.61;70.09;97508.06;105634;1256;94444;-78
2023/11/11 11:30:56;;;;;;;29.50;19.90;;;;;;;9.59;70.14;97509.83;105689;1265;106203;-76
2023/11/11 11:33:27;;;;;;;27.50;14.10;;;;;;;9.58;70.22;97508.40;105304;1257;95298;-76
2023/11/11 11:36:01;;;;;;;54.70;27.10;;;;;;;9.56;70.17;97511.77;105554;1266;95323;-75
2023/11/11 11:38:35;;;;;;;35.90;20.10;;;;;;;9.48;70.18;97513.16;105401;1264;108242;-76
2023/11/11 11:41:10;;;;;;;38.20;23.70;;;;;;;9.48;70.22;97512.84;105681;1255;95230;-74
2023/11/11 11:43:39;;;;;;;34.60;21.50;;;;;;;9.48;70.23;97504.83;105557;1257;107633;-75
2023/11/11 11:46:05;;;;;;;28.30;16.10;;;;;;;9.50;70.29;97506.22;105343;1253;95264;-75
2023/11/11 11:48:36;;;;;;;28.00;15.90;;;;;;;9.48;70.12;97505.20;105629;1256;95345;-80
2023/11/11 11:51:12;;;;;;;31.40;17.80;;;;;;;9.44;70.01;97501.36;105559;1261;108656;-75
2023/11/11 11:53:45;;;;;;;30.50;18.00;;;;;;;9.41;70.22;97498.98;105610;1257;95518;-74
2023/11/11 11:56:31;;;;;;;36.50;22.20;;;;;;;9.41;70.30;97501.65;105426;1264;107589;-76
2023/11/11 11:59:02;;;;;;;36.60;21.60;;;;;;;9.38;70.27;97500.31;105760;1256;95290;-76
2023/11/11 12:01:36;;;;;;;37.50;21.30;;;;;;;9.36;70.15;97504.17;105480;1258;95201;-77
2023/11/11 12:04:04;;;;;;;31.60;16.50;;;;;;;9.33;70.11;97512.46;105444;1266;108861;-76
2023/11/11 12:06:39;;;;;;;35.10;21.30;;;;;;;9.29;70.07;97506.96;105518;1258;95728;-75
2023/11/11 12:09:09;;;;;;;29.40;17.20;;;;;;;9.28;70.15;97504.44;105528;1256;107476;-75
2023/11/11 12:11:37;;;;;;;48.00;27.20;;;;;;;9.24;70.23;97501.73;105744;1257;96206;-76
2023/11/11 12:14:13;;;;;;;48.20;25.00;;;;;;;9.21;70.12;97505.37;105653;1257;95215;-75
2023/11/11 12:16:42;;;;;;;43.60;23.10;;;;;;;9.16;70.33;97500.16;105519;1256;108809;-75
2023/11/11 12:19:34;;;;;;;189.50;71.80;;;;;;;9.14;70.15;97502.88;105624;1256;95231;-74
2023/11/11 12:22:03;;;;;;;89.90;39.40;;;;;;;9.09;70.26;97499.91;105600;1255;107614;-75
2023/11/11 12:24:31;;;;;;;231.60;102.20;;;;;;;9.06;70.15;97498.61;105648;1256;95234;-73
2023/11/11 12:27:01;;;;;;;116.50;62.30;;;;;;;9.04;70.33;97497.73;105449;1257;95297;-75
2023/11/11 12:29:40;;;;;;;108.20;62.30;;;;;;;9.03;70.20;97497.52;105519;1257;107962;-75
2023/11/11 12:32:16;;;;;;;78.20;47.50;;;;;;;9.03;70.37;97500.14;105344;1257;95305;-76
2023/11/11 12:34:44;;;;;;;69.40;45.60;;;;;;;9.04;70.43;97492.58;105705;1256;108180;-75
2023/11/11 12:37:19;;;;;;;42.50;26.10;;;;;;;9.07;70.41;97490.23;105586;1251;95306;-75
2023/11/11 12:39:53;;;;;;;36.20;21.90;;;;;;;9.12;70.45;97484.45;105571;1257;95490;-75
2023/11/11 12:42:27;;;;;;;34.70;20.60;;;;;;;9.20;70.49;97480.88;105765;1256;107851;-75
2023/11/11 12:44:54;;;;;;;36.30;21.50;;;;;;;9.26;70.53;97481.05;105410;1264;95271;-80
2023/11/11 12:47:21;;;;;;;35.10;22.00;;;;;;;9.30;70.44;97485.52;105462;1264;95259;-74
2023/11/11 12:49:54;;;;;;;37.80;22.60;;;;;;;9.31;70.51;97490.15;105489;1257;97088;-75
2023/11/11 12:52:21;;;;;;;34.20;19.40;;;;;;;9.32;70.51;97492.73;105457;1258;96096;-75
2023/11/11 12:54:48;;;;;;;35.40;20.90;;;;;;;9.33;70.56;97492.44;105741;1256;95218;-75
2023/11/11 12:57:27;;;;;;;37.90;21.90;;;;;;;9.33;70.47;97492.57;105537;1251;95619;-75
2023/11/11 12:59:55;;;;;;;34.20;20.10;;;;;;;9.35;70.46;97492.65;105513;1257;107207;-75
2023/11/11 13:02:25;;;;;;;43.70;25.90;;;;;;;9.36;70.46;97493.77;105624;1256;95310;-76
2023/11/11 13:04:52;;;;;;;55.80;33.30;;;;;;;9.33;70.45;97497.20;105597;1257;95457;-74
2023/11/11 13:07:28;;;;;;;40.30;22.50;;;;;;;9.32;70.60;97500.53;105498;1257;95249;-77
2023/11/11 13:09:54;;;;;;;38.20;22.00;;;;;;;9.31;70.55;97498.27;105578;1251;95269;-81
2023/11/11 13:12:22;;;;;;;36.30;21.90;;;;;;;9.29;70.56;97499.88;105595;1267;95214;-74
2023/11/11 13:14:50;;;;;;;33.50;20.10;;;;;;;9.31;70.76;97504.50;105704;1265;96208;-75
2023/11/11 13:17:26;;;;;;;35.80;22.20;;;;;;;9.32;70.74;97500.52;105560;1251;96150;-75
2023/11/11 13:19:53;;;;;;;36.50;21.30;;;;;;;9.33;70.71;97503.02;105658;1251;108526;-75
2023/11/11 13:22:19;;;;;;;39.60;24.40;;;;;;;9.32;70.61;97505.13;105352;1261;95257;-77
2023/11/11 13:24:47;;;;;;;38.40;23.10;;;;;;;9.28;70.73;97500.32;105315;1257;95256;-79
2023/11/11 13:27:14;;;;;;;36.00;21.00;;;;;;;9.26;70.58;97500.51;105457;1254;95249;-74
2023/11/11 13:29:42;;;;;;;39.90;22.80;;;;;;;9.21;70.63;97497.41;105426;1256;95222;-76
2023/11/11 13:32:08;;;;;;;40.60;24.70;;;;;;;9.18;70.65;97496.48;105182;1258;95195;-74
2023/11/11 13:34:35;;;;;;;63.70;35.90;;;;;;;9.16;70.82;97497.76;105540;1254;96223;-75
2023/11/11 13:37:02;;;;;;;61.90;34.80;;;;;;;9.14;70.76;97498.96;105479;1267;95306;-75
2023/11/11 13:39:51;;;;;;;57.90;34.70;;;;;;;9.14;70.75;97500.92;105594;1255;95319;-75
2023/11/11 13:42:18;;;;;;;48.50;29.50;;;;;;;9.14;70.96;97502.86;105529;1257;108220;-77
2023/11/11 13:44:46;;;;;;;49.50;30.20;;;;;;;9.14;70.83;97506.37;105850;1251;96172;-76
2023/11/11 13:47:13;;;;;;;49.20;30.80;;;;;;;9.12;70.83;97502.55;105684;1264;95246;-76
2023/11/11 13:49:39;;;;;;;47.20;29.20;;;;;;;9.08;70.93;97503.54;105599;1266;95838;-78
2023/11/11 13:52:06;;;;;;;50.20;30.50;;;;;;;9.06;70.78;97505.48;105341;1253;95323;-77
2023/11/11 13:54:32;;;;;;;51.60;33.30;;;;;;;9.04;70.92;97502.71;105537;1257;95547;-78
2023/11/11 13:56:59;;;;;;;61.00;39.40;;;;;;;9.01;70.90;97504.34;105620;1256;107578;-75
2023/11/11 13:59:25;;;;;;;55.90;37.20;;;;;;;9.01;70.91;97507.58;105477;1251;95387;-76
2023/11/11 14:01:52;;;;;;;52.10;35.00;;;;;;;8.98;71.02;97503.58;105374;1265;95389;-75
2023/11/11 14:04:19;;;;;;;46.80;30.50;;;;;;;8.97;70.90;97503.39;105482;1256;95510;-76
2023/11/11 14:06:46;;;;;;;44.10;28.40;;;;;;;8.91;71.03;97504.20;105620;1258;95673;-77
2023/11/11 14:09:12;;;;;;;45.60;29.30;;;;;;;8.85;71.00;97503.16;105384;1257;95265;-76
2023/11/11 14:11:42;;;;;;;46.50;28.80;;;;;;;8.81;71.19;97502.98;105594;1254;96166;-75
2023/11/11 14:14:09;;;;;;;45.90;28.40;;;;;;;8.78;71.15;97502.01;105532;1254;106410;-78
2023/11/11 14:16:35;;;;;;;43.20;27.10;;;;;;;8.75;71.14;97501.27;105438;1256;95252;-75
2023/11/11 14:19:02;;;;;;;51.10;28.90;;;;;;;8.71;71.20;97500.73;105610;1251;95235;-80
2023/11/11 14:21:32;;;;;;;48.80;28.70;;;;;;;8.67;71.10;97501.43;105614;1263;95265;-76
2023/11/11 14:24:01;;;;;;;41.90;26.00;;;;;;;8.65;71.21;97502.64;105645;1257;96183;-75
2023/11/11 14:26:29;;;;;;;37.30;22.90;;;;;;;8.63;71.36;97501.03;105832;1257;108237;-75
2023/11/11 14:28:56;;;;;;;35.40;22.20;;;;;;;8.60;71.33;97499.92;105628;1251;95694;-75
2023/11/11 14:31:23;;;;;;;36.00;21.00;;;;;;;8.59;71.22;97497.02;105495;1266;96180;-74
2023/11/11 14:33:50;;;;;;;35.70;21.70;;;;;;;8.57;71.33;97493.65;105474;1258;95252;-76
2023/11/11 14:36:29;;;;;;;37.00;21.70;;;;;;;8.56;71.39;97499.92;105499;1254;95176;-77
2023/11/11 14:38:56;;;;;;;34.20;20.70;;;;;;;8.54;71.35;97499.10;105302;1257;95315;-75
2023/11/11 14:41:24;;;;;;;34.10;21.20;;;;;;;8.51;71.42;97500.02;105673;1256;95226;-75
2023/11/11 14:43:51;;;;;;;39.00;22.60;;;;;;;8.49;71.36;97501.75;105259;1254;95602;-74
2023/11/11 14:46:22;;;;;;;34.30;21.80;;;;;;;8.46;71.54;97498.77;105828;1257;95265;-79
2023/11/11 14:48:49;;;;;;;40.30;25.00;;;;;;;8.46;71.58;97500.10;105355;1256;95333;-75
2023/11/11 14:51:16;;;;;;;74.50;51.00;;;;;;;8.43;71.37;97500.02;105276;1251;95339;-75
2023/11/11 14:53:42;;;;;;;155.70;109.90;;;;;;;8.41;71.64;97500.31;105531;1251;96157;-75
2023/11/11 14:56:09;;;;;;;71.30;48.50;;;;;;;8.40;71.65;97498.27;105632;1256;95159;-74
2023/11/11 14:58:36;;;;;;;79.30;64.50;;;;;;;8.41;71.65;97496.44;105743;1257;95326;-75
2023/11/11 15:01:03;;;;;;;61.60;43.30;;;;;;;8.40;71.74;97497.20;105960;1267;108534;-74
2023/11/11 15:03:31;;;;;;;53.60;36.50;;;;;;;8.39;71.72;97493.30;106532;1251;96264;-75
2023/11/11 15:05:58;;;;;;;51.80;33.00;;;;;;;8.38;71.60;97493.53;105572;1251;107096;-75
